createdAt,value
2022-10-22T00:02:28.595Z,10.68
2022-10-22T00:07:31.184Z,10.79
2022-10-22T00:12:33.470Z,10.85
2022-10-22T00:17:36.201Z,10.80
2022-10-22T00:22:38.510Z,10.89
2022-10-22T00:27:41.195Z,10.87
2022-10-22T00:32:43.818Z,10.83
2022-10-22T00:37:46.130Z,10.91
2022-10-22T00:42:48.659Z,10.80
2022-10-22T00:47:50.946Z,10.86
2022-10-22T00:52:53.439Z,10.81
2022-10-22T00:57:56.959Z,10.95
2022-10-22T01:03:00.131Z,10.96
2022-10-22T01:08:02.474Z,11.02
2022-10-22T01:13:18.424Z,11.14
2022-10-22T01:18:42.174Z,11.06
2022-10-22T01:24:08.750Z,11.21
2022-10-22T01:29:17.885Z,11.08
2022-10-22T01:34:20.756Z,10.96
2022-10-22T01:39:23.504Z,11.11
2022-10-22T01:44:30.861Z,11.11
2022-10-22T01:49:51.734Z,11.20
2022-10-22T01:55:14.287Z,11.30
2022-10-22T02:00:18.069Z,11.26
2022-10-22T02:05:49.010Z,11.33
2022-10-22T02:10:52.032Z,11.50
2022-10-22T02:15:54.749Z,11.35
2022-10-22T02:20:57.584Z,11.35
2022-10-22T02:26:04.039Z,11.37
2022-10-22T02:31:15.368Z,11.40
2022-10-22T02:36:18.600Z,11.42
2022-10-22T02:41:20.958Z,11.43
2022-10-22T02:46:24.356Z,11.44
2022-10-22T02:51:26.683Z,11.48
2022-10-22T02:56:29.124Z,11.66
2022-10-22T03:01:31.465Z,11.72
2022-10-22T03:06:33.786Z,11.59
2022-10-22T03:11:36.088Z,11.67
2022-10-22T03:16:38.413Z,11.66
2022-10-22T03:21:50.238Z,11.83
2022-10-22T03:26:53.455Z,11.55
2022-10-22T03:31:56.071Z,11.66
2022-10-22T03:36:59.750Z,11.68
2022-10-22T03:42:02.535Z,11.68
2022-10-22T03:47:05.211Z,11.59
2022-10-22T03:52:13.364Z,11.71
2022-10-22T03:57:15.787Z,11.61
2022-10-22T04:02:18.347Z,11.57
2022-10-22T04:07:20.829Z,11.73
2022-10-22T04:12:23.206Z,11.85
2022-10-22T04:17:25.649Z,11.79
2022-10-22T04:22:27.981Z,11.89
2022-10-22T04:27:34.433Z,11.96
2022-10-22T04:32:36.797Z,11.73
2022-10-22T04:37:39.462Z,11.64
2022-10-22T04:42:42.143Z,11.69
2022-10-22T04:47:44.511Z,11.60
2022-10-22T04:52:46.806Z,11.59
2022-10-22T04:57:49.104Z,11.83
2022-10-22T05:02:51.897Z,12.05
2022-10-22T05:07:54.186Z,12.15
2022-10-22T05:12:56.476Z,12.15
2022-10-22T05:17:58.744Z,12.28
2022-10-22T05:23:01.078Z,12.23
2022-10-22T05:28:03.320Z,12.03
2022-10-22T05:33:05.584Z,12.08
2022-10-22T05:38:07.860Z,11.98
2022-10-22T05:43:10.526Z,12.09
2022-10-22T05:48:12.790Z,12.09
2022-10-22T05:53:15.061Z,12.31
2022-10-22T05:58:17.312Z,12.25
2022-10-22T06:03:19.938Z,12.20
2022-10-22T06:08:22.231Z,12.23
2022-10-22T06:13:24.543Z,12.28
2022-10-22T06:18:26.802Z,12.16
2022-10-22T06:23:29.466Z,12.24
2022-10-22T06:28:32.086Z,12.25
2022-10-22T06:33:37.266Z,12.43
2022-10-22T06:38:39.913Z,12.41
2022-10-22T06:43:46.996Z,12.53
2022-10-22T06:48:56.117Z,12.57
2022-10-22T06:53:58.975Z,12.59
2022-10-22T06:59:01.320Z,12.63
2022-10-22T07:04:04.411Z,12.63
2022-10-22T07:09:07.125Z,12.69
2022-10-22T07:14:09.548Z,12.67
2022-10-22T07:19:12.163Z,12.74
2022-10-22T07:24:14.461Z,12.95
2022-10-22T07:29:16.976Z,13.07
2022-10-22T07:39:22.640Z,12.85
2022-10-22T07:44:24.978Z,12.90
2022-10-22T07:49:27.232Z,12.88
2022-10-22T07:54:29.570Z,13.18
2022-10-22T07:59:31.919Z,13.12
2022-10-22T08:04:34.218Z,13.17
2022-10-22T08:09:36.453Z,13.12
2022-10-22T08:14:38.859Z,13.13
2022-10-22T08:19:41.169Z,13.03
2022-10-22T08:24:43.534Z,13.04
2022-10-22T08:29:45.845Z,13.20
2022-10-22T08:34:48.666Z,13.25
2022-10-22T08:39:50.989Z,13.24
2022-10-22T08:45:31.138Z,13.60
2022-10-22T08:50:40.206Z,13.65
2022-10-22T08:55:42.789Z,13.78
2022-10-22T09:01:20.297Z,13.81
2022-10-22T09:06:25.570Z,13.95
2022-10-22T09:11:35.822Z,14.03
2022-10-22T09:16:50.919Z,14.00
2022-10-22T09:21:59.058Z,13.91
2022-10-22T09:27:02.433Z,13.93
2022-10-22T09:32:04.965Z,14.15
2022-10-22T09:37:09.862Z,14.32
2022-10-22T09:42:15.744Z,14.32
2022-10-22T09:48:30.597Z,14.24
2022-10-22T09:53:38.276Z,14.22
2022-10-22T09:58:49.490Z,14.33
2022-10-22T10:03:52.089Z,14.32
2022-10-22T10:08:54.445Z,14.31
2022-10-22T10:14:02.917Z,14.55
2022-10-22T10:19:20.820Z,14.61
2022-10-22T10:24:29.790Z,14.39
2022-10-22T10:34:58.114Z,14.50
2022-10-22T10:40:38.067Z,14.66
2022-10-22T10:45:43.211Z,14.93
2022-10-22T10:51:05.200Z,15.19
2022-10-22T10:56:19.437Z,15.33
2022-10-22T11:01:35.679Z,15.43
2022-10-22T11:06:38.735Z,15.20
2022-10-22T11:11:48.204Z,15.26
2022-10-22T11:16:55.638Z,15.23
2022-10-22T11:22:15.967Z,15.23
2022-10-22T11:27:42.175Z,14.87
2022-10-22T11:32:48.759Z,15.11
2022-10-22T11:37:52.403Z,15.05
2022-10-22T11:42:58.150Z,14.98
2022-10-22T11:48:07.608Z,14.90
2022-10-22T11:53:13.362Z,15.16
2022-10-22T11:58:33.850Z,15.12
2022-10-22T12:03:41.119Z,15.01
2022-10-22T12:08:49.397Z,15.05
2022-10-22T12:14:03.864Z,14.76
2022-10-22T12:19:19.127Z,14.82
2022-10-22T12:24:23.611Z,15.01
2022-10-22T12:29:27.110Z,15.01
2022-10-22T12:34:29.677Z,15.10
2022-10-22T12:39:34.880Z,15.10
2022-10-22T12:44:37.176Z,15.06
2022-10-22T12:49:41.900Z,15.08
2022-10-22T12:54:46.045Z,15.06
2022-10-22T12:59:50.810Z,15.07
2022-10-22T13:05:16.607Z,15.05
2022-10-22T13:10:26.023Z,14.95
2022-10-22T13:15:28.339Z,15.05
2022-10-22T13:20:31.275Z,15.13
2022-10-22T13:25:35.783Z,15.11
2022-10-22T13:30:39.227Z,15.12
2022-10-22T13:35:41.523Z,15.15
2022-10-22T13:40:43.861Z,15.13
2022-10-22T13:45:47.633Z,15.05
2022-10-22T13:50:53.773Z,15.06
2022-10-22T13:55:56.822Z,15.21
2022-10-22T14:01:00.734Z,15.21
2022-10-22T14:06:03.203Z,15.18
2022-10-22T14:11:05.616Z,15.27
2022-10-22T14:16:12.092Z,15.17
2022-10-22T14:21:15.915Z,15.26
2022-10-22T14:26:28.231Z,15.31
2022-10-22T14:31:31.318Z,15.18
2022-10-22T14:36:33.664Z,15.16
2022-10-22T14:41:36.107Z,15.11
2022-10-22T14:46:40.341Z,15.00
2022-10-22T14:51:42.694Z,14.73
2022-10-22T14:56:45.200Z,15.19
2022-10-22T15:01:47.504Z,14.80
2022-10-22T15:06:49.880Z,14.58
2022-10-22T15:11:52.444Z,14.59
2022-10-22T15:16:54.714Z,14.75
2022-10-22T15:21:57.050Z,14.78
2022-10-22T15:26:59.458Z,14.69
2022-10-22T15:32:01.840Z,14.67
2022-10-22T15:37:06.568Z,14.84
2022-10-22T15:42:10.084Z,15.02
2022-10-22T15:47:12.470Z,14.75
2022-10-22T15:52:15.918Z,14.68
2022-10-22T15:57:18.203Z,14.62
2022-10-22T16:02:20.580Z,14.90
2022-10-22T16:07:24.707Z,14.67
2022-10-22T16:12:27.273Z,14.73
2022-10-22T16:17:29.705Z,14.75
2022-10-22T16:22:32.093Z,14.78
2022-10-22T16:27:34.462Z,14.83
2022-10-22T16:32:36.853Z,14.80
2022-10-22T16:37:39.364Z,14.79
2022-10-22T16:42:42.271Z,14.85
2022-10-22T16:47:47.067Z,14.89
2022-10-22T16:52:50.886Z,15.02
2022-10-22T16:57:53.717Z,14.88
2022-10-22T17:02:56.423Z,14.81
2022-10-22T17:07:58.815Z,15.09
2022-10-22T17:13:01.244Z,14.95
2022-10-22T17:18:04.244Z,14.72
2022-10-22T17:23:06.666Z,15.01
2022-10-22T17:28:09.469Z,14.71
2022-10-22T17:33:11.904Z,14.84
2022-10-22T17:38:14.292Z,14.66
2022-10-22T17:43:16.775Z,14.83
2022-10-22T17:48:19.240Z,14.52
2022-10-22T17:53:21.660Z,14.73
2022-10-22T17:58:24.572Z,14.51
2022-10-22T18:03:28.077Z,14.75
2022-10-22T18:08:30.427Z,14.70
2022-10-22T18:13:33.360Z,14.66
2022-10-22T18:18:36.215Z,14.66
2022-10-22T18:23:38.552Z,14.51
2022-10-22T18:28:41.062Z,14.50
2022-10-22T18:33:43.708Z,14.45
2022-10-22T18:38:53.468Z,14.33
2022-10-22T18:44:03.589Z,14.44
2022-10-22T18:49:09.425Z,14.58
2022-10-22T18:54:22.686Z,14.69
2022-10-22T18:59:27.055Z,14.54
2022-10-22T19:04:36.823Z,14.74
2022-10-22T19:09:40.550Z,14.76
2022-10-22T19:14:43.133Z,14.89
2022-10-22T19:19:45.828Z,14.86
2022-10-22T19:24:51.570Z,14.85
2022-10-22T19:29:53.892Z,15.05
2022-10-22T19:34:56.514Z,15.14
2022-10-22T19:39:58.947Z,15.17
2022-10-22T19:45:01.375Z,15.16
2022-10-22T19:50:04.008Z,15.05
2022-10-22T19:55:06.968Z,14.89
2022-10-22T20:00:09.971Z,14.91
2022-10-22T20:05:12.481Z,14.92
2022-10-22T20:10:14.885Z,15.04
2022-10-22T20:15:18.685Z,14.99
2022-10-22T20:20:25.566Z,15.15
2022-10-22T20:25:28.619Z,14.76
2022-10-22T20:30:31.037Z,14.77
2022-10-22T20:35:33.430Z,14.46
2022-10-22T20:40:35.832Z,14.25
2022-10-22T20:45:38.333Z,14.16
2022-10-22T20:50:40.874Z,14.10
2022-10-22T20:55:43.233Z,14.41
2022-10-22T21:00:46.480Z,14.53
2022-10-22T21:05:48.917Z,14.71
2022-10-22T21:10:51.342Z,14.65
2022-10-22T21:15:53.706Z,14.95
2022-10-22T21:20:56.780Z,14.78
2022-10-22T21:25:59.348Z,14.98
2022-10-22T21:31:06.327Z,14.75
2022-10-22T21:36:09.277Z,14.62
2022-10-22T21:41:14.222Z,14.95
2022-10-22T21:46:19.462Z,15.01
2022-10-22T21:51:22.877Z,14.70
2022-10-22T21:56:32.709Z,14.88
2022-10-22T22:01:35.971Z,14.67
2022-10-22T22:06:38.452Z,14.82
2022-10-22T22:11:40.802Z,14.81
2022-10-22T22:16:43.153Z,15.03
2022-10-22T22:21:45.448Z,14.85
2022-10-22T22:26:48.822Z,14.75
2022-10-22T22:31:51.198Z,14.98
2022-10-22T22:36:53.547Z,15.20
2022-10-22T22:41:55.856Z,15.21
2022-10-22T22:46:58.184Z,15.11
2022-10-22T22:52:00.580Z,15.03
2022-10-22T22:57:02.929Z,14.74
2022-10-22T23:02:05.400Z,15.08
2022-10-22T23:07:07.847Z,14.99
2022-10-22T23:12:10.290Z,14.89
2022-10-22T23:17:13.291Z,14.78
2022-10-22T23:22:15.721Z,14.81
2022-10-22T23:27:18.037Z,14.88
2022-10-22T23:32:20.412Z,14.93
2022-10-22T23:37:22.822Z,14.89
2022-10-22T23:42:25.161Z,14.83
2022-10-22T23:47:27.523Z,14.80
2022-10-22T23:52:29.900Z,14.97
2022-10-22T23:57:32.211Z,15.05
